sensor_id;sensor_type;location;lat;lon;timestamp;pressure;altitude;pressure_sealevel;temperature;humidity
63399;BME280;49533;-34.520;150.798;2022-11-15T00:01:16;99825.09;;;19.80;59.05
63399;BME280;49533;-34.520;150.798;2022-11-15T00:03:45;99829.44;;;19.74;59.21
63399;BME280;49533;-34.520;150.798;2022-11-15T00:06:14;99827.81;;;19.73;58.87
63399;BME280;49533;-34.520;150.798;2022-11-15T00:08:42;99830.63;;;19.80;59.22
63399;BME280;49533;-34.520;150.798;2022-11-15T00:11:11;99832.53;;;19.69;59.21
63399;BME280;49533;-34.520;150.798;2022-11-15T00:13:40;99815.94;;;19.65;59.49
63399;BME280;49533;-34.520;150.798;2022-11-15T00:16:09;99820.66;;;19.65;59.16
63399;BME280;49533;-34.520;150.798;2022-11-15T00:18:38;99819.13;;;19.67;58.67
63399;BME280;49533;-34.520;150.798;2022-11-15T00:21:10;99813.69;;;19.78;58.71
63399;BME280;49533;-34.520;150.798;2022-11-15T00:23:39;99807.41;;;19.88;59.02
63399;BME280;49533;-34.520;150.798;2022-11-15T00:26:10;99813.78;;;20.00;59.28
63399;BME280;49533;-34.520;150.798;2022-11-15T00:28:39;99809.84;;;20.04;59.53
63399;BME280;49533;-34.520;150.798;2022-11-15T00:31:11;99805.06;;;19.94;59.79
63399;BME280;49533;-34.520;150.798;2022-11-15T00:33:39;99788.53;;;19.94;59.80
63399;BME280;49533;-34.520;150.798;2022-11-15T00:36:09;99803.50;;;19.93;59.85
63399;BME280;49533;-34.520;150.798;2022-11-15T00:38:39;99786.59;;;19.94;59.70
63399;BME280;49533;-34.520;150.798;2022-11-15T00:41:08;99792.88;;;19.98;60.25
63399;BME280;49533;-34.520;150.798;2022-11-15T00:43:36;99780.69;;;20.07;60.01
63399;BME280;49533;-34.520;150.798;2022-11-15T00:46:06;99783.47;;;20.07;60.13
63399;BME280;49533;-34.520;150.798;2022-11-15T00:48:36;99780.72;;;20.10;60.07
63399;BME280;49533;-34.520;150.798;2022-11-15T00:51:05;99793.72;;;20.17;60.31
63399;BME280;49533;-34.520;150.798;2022-11-15T00:53:33;99772.06;;;20.19;59.98
63399;BME280;49533;-34.520;150.798;2022-11-15T00:56:01;99776.81;;;20.26;59.73
63399;BME280;49533;-34.520;150.798;2022-11-15T00:58:29;99767.78;;;20.39;59.59
63399;BME280;49533;-34.520;150.798;2022-11-15T01:01:06;99761.09;;;20.44;59.53
63399;BME280;49533;-34.520;150.798;2022-11-15T01:03:35;99762.28;;;20.47;59.55
63399;BME280;49533;-34.520;150.798;2022-11-15T01:06:03;99756.75;;;20.50;59.59
63399;BME280;49533;-34.520;150.798;2022-11-15T01:08:33;99764.22;;;20.42;58.95
63399;BME280;49533;-34.520;150.798;2022-11-15T01:11:04;99767.78;;;20.43;59.11
63399;BME280;49533;-34.520;150.798;2022-11-15T01:13:34;99771.72;;;20.42;59.24
63399;BME280;49533;-34.520;150.798;2022-11-15T01:16:09;99765.03;;;20.47;59.35
63399;BME280;49533;-34.520;150.798;2022-11-15T01:18:38;99770.53;;;20.50;59.30
63399;BME280;49533;-34.520;150.798;2022-11-15T01:21:10;99757.53;;;20.47;59.33
63399;BME280;49533;-34.520;150.798;2022-11-15T01:23:39;99743.75;;;20.33;59.30
63399;BME280;49533;-34.520;150.798;2022-11-15T01:26:10;99734.66;;;20.39;59.55
63399;BME280;49533;-34.520;150.798;2022-11-15T01:28:40;99747.31;;;20.40;59.38
63399;BME280;49533;-34.520;150.798;2022-11-15T01:31:13;99742.16;;;20.42;59.37
63399;BME280;49533;-34.520;150.798;2022-11-15T01:33:42;99750.03;;;20.33;59.37
63399;BME280;49533;-34.520;150.798;2022-11-15T01:36:13;99746.47;;;20.29;59.29
63399;BME280;49533;-34.520;150.798;2022-11-15T01:38:43;99745.69;;;20.25;58.94
63399;BME280;49533;-34.520;150.798;2022-11-15T01:41:19;99738.19;;;20.22;58.72
63399;BME280;49533;-34.520;150.798;2022-11-15T01:43:50;99727.94;;;20.15;58.88
63399;BME280;49533;-34.520;150.798;2022-11-15T01:46:26;99724.00;;;20.16;59.34
63399;BME280;49533;-34.520;150.798;2022-11-15T01:48:57;99713.00;;;20.34;59.29
63399;BME280;49533;-34.520;150.798;2022-11-15T01:51:31;99714.16;;;20.48;59.37
63399;BME280;49533;-34.520;150.798;2022-11-15T01:54:05;99698.00;;;20.50;59.09
63399;BME280;49533;-34.520;150.798;2022-11-15T01:56:41;99711.84;;;20.57;59.30
63399;BME280;49533;-34.520;150.798;2022-11-15T01:59:11;99698.44;;;20.59;59.34
63399;BME280;49533;-34.520;150.798;2022-11-15T02:01:40;99710.66;;;20.61;59.35
63399;BME280;49533;-34.520;150.798;2022-11-15T02:04:13;99714.22;;;20.58;59.49
63399;BME280;49533;-34.520;150.798;2022-11-15T02:06:43;99720.88;;;20.54;59.80
63399;BME280;49533;-34.520;150.798;2022-11-15T02:09:13;99716.16;;;20.58;59.71
63399;BME280;49533;-34.520;150.798;2022-11-15T02:11:42;99716.59;;;20.56;59.75
63399;BME280;49533;-34.520;150.798;2022-11-15T02:14:12;99713.41;;;20.65;59.61
63399;BME280;49533;-34.520;150.798;2022-11-15T02:16:58;99700.00;;;20.60;59.70
63399;BME280;49533;-34.520;150.798;2022-11-15T02:19:53;99712.25;;;20.77;59.61
63399;BME280;49533;-34.520;150.798;2022-11-15T02:22:59;99698.03;;;20.89;60.44
63399;BME280;49533;-34.520;150.798;2022-11-15T02:29:01;99692.50;;;20.78;59.34
63399;BME280;49533;-34.520;150.798;2022-11-15T02:31:48;99687.78;;;20.75;59.26
63399;BME280;49533;-34.520;150.798;2022-11-15T02:34:42;99688.97;;;20.67;59.58
63399;BME280;49533;-34.520;150.798;2022-11-15T02:37:29;99689.38;;;20.58;59.46
63399;BME280;49533;-34.520;150.798;2022-11-15T02:40:12;99679.91;;;20.70;59.15
63399;BME280;49533;-34.520;150.798;2022-11-15T02:42:50;99674.78;;;20.69;59.33
63399;BME280;49533;-34.520;150.798;2022-11-15T02:45:37;99666.91;;;20.67;59.15
63399;BME280;49533;-34.520;150.798;2022-11-15T02:48:08;99661.41;;;20.56;59.23
63399;BME280;49533;-34.520;150.798;2022-11-15T02:50:37;99664.56;;;20.58;59.49
63399;BME280;49533;-34.520;150.798;2022-11-15T02:53:06;99661.75;;;20.66;59.84
63399;BME280;49533;-34.520;150.798;2022-11-15T02:55:38;99659.81;;;20.48;59.89
63399;BME280;49533;-34.520;150.798;2022-11-15T02:58:27;99664.91;;;20.53;59.83
63399;BME280;49533;-34.520;150.798;2022-11-15T03:04:11;99660.97;;;20.72;59.88
63399;BME280;49533;-34.520;150.798;2022-11-15T03:06:54;99657.81;;;20.70;59.88
63399;BME280;49533;-34.520;150.798;2022-11-15T03:09:48;99657.84;;;20.59;59.59
63399;BME280;49533;-34.520;150.798;2022-11-15T03:12:27;99666.50;;;20.69;59.72
63399;BME280;49533;-34.520;150.798;2022-11-15T03:15:05;99660.63;;;20.56;59.19
63399;BME280;49533;-34.520;150.798;2022-11-15T03:17:38;99645.22;;;20.55;59.06
63399;BME280;49533;-34.520;150.798;2022-11-15T03:20:09;99659.81;;;20.59;59.56
63399;BME280;49533;-34.520;150.798;2022-11-15T03:22:43;99643.25;;;20.62;59.28
63399;BME280;49533;-34.520;150.798;2022-11-15T03:25:17;99641.66;;;20.72;59.43
63399;BME280;49533;-34.520;150.798;2022-11-15T03:27:52;99640.06;;;20.78;59.64
63399;BME280;49533;-34.520;150.798;2022-11-15T03:30:21;99635.34;;;20.79;59.93
63399;BME280;49533;-34.520;150.798;2022-11-15T03:32:57;99627.06;;;20.79;59.54
63399;BME280;49533;-34.520;150.798;2022-11-15T03:35:29;99625.47;;;20.81;59.59
63399;BME280;49533;-34.520;150.798;2022-11-15T03:38:26;99633.34;;;20.87;59.62
63399;BME280;49533;-34.520;150.798;2022-11-15T03:41:00;99630.16;;;20.99;60.23
63399;BME280;49533;-34.520;150.798;2022-11-15T03:43:55;99644.41;;;20.87;59.27
63399;BME280;49533;-34.520;150.798;2022-11-15T03:46:35;99625.47;;;20.71;60.06
63399;BME280;49533;-34.520;150.798;2022-11-15T03:49:12;99625.13;;;20.69;59.82
63399;BME280;49533;-34.520;150.798;2022-11-15T03:51:42;99636.13;;;20.72;59.79
63399;BME280;49533;-34.520;150.798;2022-11-15T03:54:12;99628.22;;;20.78;59.81
63399;BME280;49533;-34.520;150.798;2022-11-15T03:56:41;99630.22;;;20.70;59.76
63399;BME280;49533;-34.520;150.798;2022-11-15T03:59:09;99625.88;;;20.66;60.05
63399;BME280;49533;-34.520;150.798;2022-11-15T04:01:37;99624.72;;;20.74;60.53
63399;BME280;49533;-34.520;150.798;2022-11-15T04:04:05;99616.00;;;20.75;59.75
63399;BME280;49533;-34.520;150.798;2022-11-15T04:06:33;99616.00;;;20.75;59.97
63399;BME280;49533;-34.520;150.798;2022-11-15T04:09:02;99617.63;;;20.69;60.03
63399;BME280;49533;-34.520;150.798;2022-11-15T04:11:30;99608.13;;;20.52;60.20
63399;BME280;49533;-34.520;150.798;2022-11-15T04:13:58;99608.94;;;20.60;60.39
63399;BME280;49533;-34.520;150.798;2022-11-15T04:16:26;99606.97;;;20.57;60.82
63399;BME280;49533;-34.520;150.798;2022-11-15T04:18:54;99604.63;;;20.66;61.34
63399;BME280;49533;-34.520;150.798;2022-11-15T04:21:33;99606.97;;;20.64;61.32
63399;BME280;49533;-34.520;150.798;2022-11-15T04:24:16;99606.56;;;20.69;61.29
63399;BME280;49533;-34.520;150.798;2022-11-15T04:26:44;99605.75;;;20.87;60.83
63399;BME280;49533;-34.520;150.798;2022-11-15T04:29:12;99607.69;;;20.97;60.11
63399;BME280;49533;-34.520;150.798;2022-11-15T04:31:52;99605.69;;;21.04;59.72
63399;BME280;49533;-34.520;150.798;2022-11-15T04:34:20;99607.25;;;21.09;59.96
63399;BME280;49533;-34.520;150.798;2022-11-15T04:36:48;99606.84;;;21.14;59.59
63399;BME280;49533;-34.520;150.798;2022-11-15T04:39:28;99600.50;;;21.17;59.53
63399;BME280;49533;-34.520;150.798;2022-11-15T04:41:56;99596.53;;;21.18;59.37
63399;BME280;49533;-34.520;150.798;2022-11-15T04:44:25;99602.47;;;21.20;59.72
63399;BME280;49533;-34.520;150.798;2022-11-15T04:46:53;99603.25;;;21.24;59.20
63399;BME280;49533;-34.520;150.798;2022-11-15T04:49:21;99602.81;;;21.26;59.40
63399;BME280;49533;-34.520;150.798;2022-11-15T04:51:49;99599.25;;;21.29;59.01
63399;BME280;49533;-34.520;150.798;2022-11-15T04:54:17;99601.63;;;21.31;58.99
63399;BME280;49533;-34.520;150.798;2022-11-15T04:56:45;99598.03;;;21.34;58.90
63399;BME280;49533;-34.520;150.798;2022-11-15T04:59:13;99600.81;;;21.34;59.14
63399;BME280;49533;-34.520;150.798;2022-11-15T05:01:41;99601.97;;;21.36;58.90
63399;BME280;49533;-34.520;150.798;2022-11-15T05:04:09;99617.38;;;21.37;58.89
63399;BME280;49533;-34.520;150.798;2022-11-15T05:06:49;99603.97;;;21.36;59.00
63399;BME280;49533;-34.520;150.798;2022-11-15T05:09:19;99596.19;;;21.05;59.06
63399;BME280;49533;-34.520;150.798;2022-11-15T05:11:48;99604.13;;;20.96;59.40
63399;BME280;49533;-34.520;150.798;2022-11-15T05:14:16;99596.69;;;20.79;59.86
63399;BME280;49533;-34.520;150.798;2022-11-15T05:16:44;99593.13;;;20.78;59.64
63399;BME280;49533;-34.520;150.798;2022-11-15T05:19:12;99600.25;;;20.65;59.65
63399;BME280;49533;-34.520;150.798;2022-11-15T05:21:41;99589.22;;;20.58;59.58
63399;BME280;49533;-34.520;150.798;2022-11-15T05:24:10;99600.28;;;20.69;60.28
63399;BME280;49533;-34.520;150.798;2022-11-15T05:26:38;99603.41;;;20.74;60.18
63399;BME280;49533;-34.520;150.798;2022-11-15T05:29:08;99602.25;;;20.65;60.16
63399;BME280;49533;-34.520;150.798;2022-11-15T05:31:40;99611.28;;;20.76;60.22
63399;BME280;49533;-34.520;150.798;2022-11-15T05:34:09;99608.56;;;20.69;60.43
63399;BME280;49533;-34.520;150.798;2022-11-15T05:36:39;99610.91;;;20.67;59.80
63399;BME280;49533;-34.520;150.798;2022-11-15T05:39:08;99614.47;;;20.67;60.82
63399;BME280;49533;-34.520;150.798;2022-11-15T05:41:48;99596.28;;;20.73;60.47
63399;BME280;49533;-34.520;150.798;2022-11-15T05:44:22;99618.00;;;20.71;60.13
63399;BME280;49533;-34.520;150.798;2022-11-15T05:46:53;99609.72;;;20.60;59.81
63399;BME280;49533;-34.520;150.798;2022-11-15T05:49:29;99612.88;;;20.55;60.35
63399;BME280;49533;-34.520;150.798;2022-11-15T05:51:58;99614.47;;;20.63;59.75
63399;BME280;49533;-34.520;150.798;2022-11-15T05:54:27;99616.03;;;20.65;59.96
63399;BME280;49533;-34.520;150.798;2022-11-15T05:56:55;99616.84;;;20.69;59.93
63399;BME280;49533;-34.520;150.798;2022-11-15T05:59:23;99618.00;;;20.60;59.59
63399;BME280;49533;-34.520;150.798;2022-11-15T06:01:52;99619.97;;;20.49;59.19
63399;BME280;49533;-34.520;150.798;2022-11-15T06:04:20;99616.84;;;20.51;59.57
63399;BME280;49533;-34.520;150.798;2022-11-15T06:06:48;99621.56;;;20.61;60.02
63399;BME280;49533;-34.520;150.798;2022-11-15T06:09:15;99631.00;;;20.67;60.04
63399;BME280;49533;-34.520;150.798;2022-11-15T06:11:43;99642.81;;;20.78;59.38
63399;BME280;49533;-34.520;150.798;2022-11-15T06:14:11;99636.47;;;20.89;59.62
63399;BME280;49533;-34.520;150.798;2022-11-15T06:16:39;99634.16;;;20.80;59.82
63399;BME280;49533;-34.520;150.798;2022-11-15T06:19:08;99637.31;;;20.71;60.09
63399;BME280;49533;-34.520;150.798;2022-11-15T06:21:36;99628.19;;;20.92;59.57
63399;BME280;49533;-34.520;150.798;2022-11-15T06:24:05;99641.16;;;21.13;59.22
63399;BME280;49533;-34.520;150.798;2022-11-15T06:26:33;99645.03;;;21.26;59.05
63399;BME280;49533;-34.520;150.798;2022-11-15T06:29:03;99660.78;;;21.37;58.60
63399;BME280;49533;-34.520;150.798;2022-11-15T06:31:32;99671.84;;;21.44;58.42
63399;BME280;49533;-34.520;150.798;2022-11-15T06:34:01;99661.56;;;21.48;58.27
63399;BME280;49533;-34.520;150.798;2022-11-15T06:36:29;99667.06;;;21.55;58.50
63399;BME280;49533;-34.520;150.798;2022-11-15T06:38:57;99665.06;;;21.59;58.53
63399;BME280;49533;-34.520;150.798;2022-11-15T06:41:25;99670.56;;;21.66;58.02
63399;BME280;49533;-34.520;150.798;2022-11-15T06:43:53;99676.47;;;21.68;58.07
63399;BME280;49533;-34.520;150.798;2022-11-15T06:46:21;99670.94;;;21.68;58.18
63399;BME280;49533;-34.520;150.798;2022-11-15T06:48:51;99677.22;;;21.73;57.92
63399;BME280;49533;-34.520;150.798;2022-11-15T06:51:20;99673.69;;;21.76;57.90
63399;BME280;49533;-34.520;150.798;2022-11-15T06:53:48;99670.91;;;21.76;57.94
63399;BME280;49533;-34.520;150.798;2022-11-15T06:56:16;99676.44;;;21.76;58.09
63399;BME280;49533;-34.520;150.798;2022-11-15T06:58:44;99680.38;;;21.75;57.84
63399;BME280;49533;-34.520;150.798;2022-11-15T07:01:13;99691.00;;;21.80;57.75
63399;BME280;49533;-34.520;150.798;2022-11-15T07:03:42;99682.34;;;21.81;57.79
63399;BME280;49533;-34.520;150.798;2022-11-15T07:06:10;99687.88;;;21.78;58.11
63399;BME280;49533;-34.520;150.798;2022-11-15T07:08:38;99688.63;;;21.82;57.47
63399;BME280;49533;-34.520;150.798;2022-11-15T07:11:08;99694.56;;;21.84;57.71
63399;BME280;49533;-34.520;150.798;2022-11-15T07:13:37;99684.25;;;21.88;57.54
63399;BME280;49533;-34.520;150.798;2022-11-15T07:16:07;99697.81;;;21.64;58.29
63399;BME280;49533;-34.520;150.798;2022-11-15T07:18:36;99704.88;;;21.73;58.00
63399;BME280;49533;-34.520;150.798;2022-11-15T07:21:06;99714.34;;;21.79;58.20
63399;BME280;49533;-34.520;150.798;2022-11-15T07:23:38;99723.38;;;21.86;57.61
63399;BME280;49533;-34.520;150.798;2022-11-15T07:26:07;99724.53;;;21.92;57.51
63399;BME280;49533;-34.520;150.798;2022-11-15T07:28:36;99720.97;;;21.92;57.62
63399;BME280;49533;-34.520;150.798;2022-11-15T07:31:05;99724.13;;;21.90;57.61
63399;BME280;49533;-34.520;150.798;2022-11-15T07:33:34;99725.72;;;21.88;57.63
63399;BME280;49533;-34.520;150.798;2022-11-15T07:36:04;99732.47;;;21.87;57.78
63399;BME280;49533;-34.520;150.798;2022-11-15T07:38:34;99744.69;;;21.89;57.69
63399;BME280;49533;-34.520;150.798;2022-11-15T07:41:04;99750.63;;;21.91;57.50
63399;BME280;49533;-34.520;150.798;2022-11-15T07:43:32;99752.97;;;21.93;57.38
63399;BME280;49533;-34.520;150.798;2022-11-15T07:46:06;99756.94;;;21.92;57.43
63399;BME280;49533;-34.520;150.798;2022-11-15T07:48:38;99758.91;;;21.91;57.59
63399;BME280;49533;-34.520;150.798;2022-11-15T07:51:09;99758.50;;;21.93;57.64
63399;BME280;49533;-34.520;150.798;2022-11-15T07:53:39;99768.78;;;21.92;57.09
63399;BME280;49533;-34.520;150.798;2022-11-15T07:56:07;99762.84;;;21.94;57.44
63399;BME280;49533;-34.520;150.798;2022-11-15T07:58:36;99768.78;;;21.96;57.40
63399;BME280;49533;-34.520;150.798;2022-11-15T08:01:05;99770.72;;;21.96;57.01
63399;BME280;49533;-34.520;150.798;2022-11-15T08:03:34;99774.31;;;21.96;57.14
63399;BME280;49533;-34.520;150.798;2022-11-15T08:06:02;99781.00;;;21.95;56.91
63399;BME280;49533;-34.520;150.798;2022-11-15T08:08:30;99792.47;;;21.97;57.30
63399;BME280;49533;-34.520;150.798;2022-11-15T08:11:00;99798.00;;;21.97;57.05
63399;BME280;49533;-34.520;150.798;2022-11-15T08:13:28;99799.97;;;21.97;57.07
63399;BME280;49533;-34.520;150.798;2022-11-15T08:16:01;99801.53;;;21.98;57.10
63399;BME280;49533;-34.520;150.798;2022-11-15T08:18:32;99809.44;;;21.99;57.16
63399;BME280;49533;-34.520;150.798;2022-11-15T08:21:01;99803.50;;;22.01;56.87
63399;BME280;49533;-34.520;150.798;2022-11-15T08:23:29;99813.78;;;22.00;56.93
63399;BME280;49533;-34.520;150.798;2022-11-15T08:26:02;99820.09;;;22.01;57.02
63399;BME280;49533;-34.520;150.798;2022-11-15T08:28:32;99819.31;;;22.00;56.88
63399;BME280;49533;-34.520;150.798;2022-11-15T08:31:00;99816.56;;;21.97;56.76
63399;BME280;49533;-34.520;150.798;2022-11-15T08:33:28;99823.28;;;21.99;56.70
63399;BME280;49533;-34.520;150.798;2022-11-15T08:35:59;99828.03;;;21.99;56.88
63399;BME280;49533;-34.520;150.798;2022-11-15T08:38:27;99831.97;;;21.98;56.66
63399;BME280;49533;-34.520;150.798;2022-11-15T08:41:03;99832.75;;;21.98;56.38
63399;BME280;49533;-34.520;150.798;2022-11-15T08:43:33;99834.72;;;21.98;56.39
63399;BME280;49533;-34.520;150.798;2022-11-15T08:46:01;99834.75;;;21.94;56.36
63399;BME280;49533;-34.520;150.798;2022-11-15T08:48:30;99846.22;;;21.96;56.35
63399;BME280;49533;-34.520;150.798;2022-11-15T08:50:58;99843.06;;;21.94;56.08
63399;BME280;49533;-34.520;150.798;2022-11-15T08:53:26;99857.66;;;21.95;56.37
63399;BME280;49533;-34.520;150.798;2022-11-15T08:55:54;99858.88;;;21.93;56.38
63399;BME280;49533;-34.520;150.798;2022-11-15T08:58:23;99869.13;;;21.93;56.66
63399;BME280;49533;-34.520;150.798;2022-11-15T09:00:51;99872.69;;;21.90;56.07
63399;BME280;49533;-34.520;150.798;2022-11-15T09:03:19;99867.56;;;21.92;56.60
63399;BME280;49533;-34.520;150.798;2022-11-15T09:05:47;99866.00;;;21.91;56.52
63399;BME280;49533;-34.520;150.798;2022-11-15T09:08:15;99881.00;;;21.90;56.31
63399;BME280;49533;-34.520;150.798;2022-11-15T09:10:43;99885.72;;;21.89;56.56
63399;BME280;49533;-34.520;150.798;2022-11-15T09:13:11;99888.88;;;21.88;56.56
63399;BME280;49533;-34.520;150.798;2022-11-15T09:15:40;99886.16;;;21.84;56.13
63399;BME280;49533;-34.520;150.798;2022-11-15T09:18:08;99887.34;;;21.83;56.21
63399;BME280;49533;-34.520;150.798;2022-11-15T09:20:36;99885.75;;;21.82;56.55
63399;BME280;49533;-34.520;150.798;2022-11-15T09:23:05;99882.97;;;21.82;56.11
63399;BME280;49533;-34.520;150.798;2022-11-15T09:25:33;99896.41;;;21.80;55.93
63399;BME280;49533;-34.520;150.798;2022-11-15T09:28:06;99901.97;;;21.77;56.06
63399;BME280;49533;-34.520;150.798;2022-11-15T09:30:35;99901.59;;;21.71;56.25
63399;BME280;49533;-34.520;150.798;2022-11-15T09:33:08;99890.50;;;21.67;55.10
63399;BME280;49533;-34.520;150.798;2022-11-15T09:35:36;99892.50;;;21.67;55.04
63399;BME280;49533;-34.520;150.798;2022-11-15T09:38:05;99896.06;;;21.64;54.62
63399;BME280;49533;-34.520;150.798;2022-11-15T09:40:36;99903.56;;;21.63;54.70
63399;BME280;49533;-34.520;150.798;2022-11-15T09:46:21;99915.41;;;21.57;53.69
63399;BME280;49533;-34.520;150.798;2022-11-15T09:48:54;99914.25;;;21.51;53.73
63399;BME280;49533;-34.520;150.798;2022-11-15T09:51:33;99924.53;;;21.50;53.42
63399;BME280;49533;-34.520;150.798;2022-11-15T09:54:21;99922.13;;;21.48;52.14
63399;BME280;49533;-34.520;150.798;2022-11-15T09:56:51;99930.44;;;21.48;52.75
63399;BME280;49533;-34.520;150.798;2022-11-15T09:59:36;99941.09;;;21.43;52.23
63399;BME280;49533;-34.520;150.798;2022-11-15T10:05:12;99950.19;;;21.40;51.94
63399;BME280;49533;-34.520;150.798;2022-11-15T10:08:00;99962.38;;;21.35;51.81
63399;BME280;49533;-34.520;150.798;2022-11-15T10:10:40;99966.31;;;21.31;50.11
63399;BME280;49533;-34.520;150.798;2022-11-15T10:13:16;99965.53;;;21.30;51.86
63399;BME280;49533;-34.520;150.798;2022-11-15T10:15:48;99960.00;;;21.26;51.56
63399;BME280;49533;-34.520;150.798;2022-11-15T10:18:24;99966.72;;;21.25;50.77
63399;BME280;49533;-34.520;150.798;2022-11-15T10:21:02;99972.63;;;21.20;50.92
63399;BME280;49533;-34.520;150.798;2022-11-15T10:23:37;99981.28;;;21.19;50.64
63399;BME280;49533;-34.520;150.798;2022-11-15T10:26:11;99972.63;;;21.20;50.24
63399;BME280;49533;-34.520;150.798;2022-11-15T10:28:41;99975.78;;;21.15;50.79
63399;BME280;49533;-34.520;150.798;2022-11-15T10:31:25;99989.19;;;21.13;50.15
63399;BME280;49533;-34.520;150.798;2022-11-15T10:34:14;99987.59;;;21.12;51.15
63399;BME280;49533;-34.520;150.798;2022-11-15T10:36:54;99986.00;;;21.11;50.13
63399;BME280;49533;-34.520;150.798;2022-11-15T10:39:23;99990.75;;;21.07;49.58
63399;BME280;49533;-34.520;150.798;2022-11-15T10:41:51;99988.78;;;21.04;49.65
63399;BME280;49533;-34.520;150.798;2022-11-15T10:44:24;99991.50;;;21.00;49.99
63399;BME280;49533;-34.520;150.798;2022-11-15T10:47:19;99992.31;;;20.97;49.01
63399;BME280;49533;-34.520;150.798;2022-11-15T10:49:53;99991.50;;;20.93;49.11
63399;BME280;49533;-34.520;150.798;2022-11-15T10:52:21;99989.13;;;20.92;48.76
63399;BME280;49533;-34.520;150.798;2022-11-15T10:55:00;99993.84;;;20.88;48.88
63399;BME280;49533;-34.520;150.798;2022-11-15T10:57:32;100000.16;;;20.88;48.83
63399;BME280;49533;-34.520;150.798;2022-11-15T11:00:06;99995.78;;;20.83;48.19
63399;BME280;49533;-34.520;150.798;2022-11-15T11:02:40;100008.41;;;20.81;48.28
63399;BME280;49533;-34.520;150.798;2022-11-15T11:08:21;100005.25;;;20.75;48.38
63399;BME280;49533;-34.520;150.798;2022-11-15T11:10:56;100007.22;;;20.71;48.16
63399;BME280;49533;-34.520;150.798;2022-11-15T11:13:31;100015.50;;;20.71;48.10
63399;BME280;49533;-34.520;150.798;2022-11-15T11:16:22;100010.34;;;20.66;47.65
63399;BME280;49533;-34.520;150.798;2022-11-15T11:19:14;100027.28;;;20.65;47.44
63399;BME280;49533;-34.520;150.798;2022-11-15T11:22:09;100021.34;;;20.59;47.16
63399;BME280;49533;-34.520;150.798;2022-11-15T11:24:56;100031.19;;;20.56;47.21
63399;BME280;49533;-34.520;150.798;2022-11-15T11:27:53;100026.44;;;20.53;47.11
63399;BME280;49533;-34.520;150.798;2022-11-15T11:30:38;100029.97;;;20.54;47.74
63399;BME280;49533;-34.520;150.798;2022-11-15T11:33:16;100032.69;;;20.50;47.59
63399;BME280;49533;-34.520;150.798;2022-11-15T11:36:10;100033.50;;;20.51;47.42
63399;BME280;49533;-34.520;150.798;2022-11-15T11:38:53;100031.13;;;20.46;47.35
63399;BME280;49533;-34.520;150.798;2022-11-15T11:41:38;100039.34;;;20.42;47.26
63399;BME280;49533;-34.520;150.798;2022-11-15T11:44:34;100044.88;;;20.38;47.35
63399;BME280;49533;-34.520;150.798;2022-11-15T11:47:24;100046.44;;;20.39;46.89
63399;BME280;49533;-34.520;150.798;2022-11-15T11:50:01;100044.03;;;20.34;47.04
63399;BME280;49533;-34.520;150.798;2022-11-15T11:52:49;100040.50;;;20.34;47.45
63399;BME280;49533;-34.520;150.798;2022-11-15T11:55:33;100030.19;;;20.20;46.70
63399;BME280;49533;-34.520;150.798;2022-11-15T11:58:19;100040.44;;;20.23;47.11
63399;BME280;49533;-34.520;150.798;2022-11-15T12:00:54;100032.94;;;20.20;46.77
63399;BME280;49533;-34.520;150.798;2022-11-15T12:03:33;100039.19;;;20.13;46.07
63399;BME280;49533;-34.520;150.798;2022-11-15T12:06:21;100037.97;;;20.11;46.99
63399;BME280;49533;-34.520;150.798;2022-11-15T12:09:04;100041.50;;;20.08;46.12
63399;BME280;49533;-34.520;150.798;2022-11-15T12:11:55;100039.13;;;20.06;46.26
63399;BME280;49533;-34.520;150.798;2022-11-15T12:14:48;100051.72;;;20.04;46.21
63399;BME280;49533;-34.520;150.798;2022-11-15T12:17:27;100044.22;;;20.01;46.07
63399;BME280;49533;-34.520;150.798;2022-11-15T12:20:03;100039.81;;;19.92;46.04
63399;BME280;49533;-34.520;150.798;2022-11-15T12:22:42;100044.56;;;19.92;45.94
63399;BME280;49533;-34.520;150.798;2022-11-15T12:25:25;100042.16;;;19.90;46.26
63399;BME280;49533;-34.520;150.798;2022-11-15T12:27:56;100034.66;;;19.87;46.10
63399;BME280;49533;-34.520;150.798;2022-11-15T12:30:27;100033.47;;;19.85;45.97
63399;BME280;49533;-34.520;150.798;2022-11-15T12:33:00;100032.63;;;19.81;45.96
63399;BME280;49533;-34.520;150.798;2022-11-15T12:35:42;100046.81;;;19.79;45.89
63399;BME280;49533;-34.520;150.798;2022-11-15T12:38:13;100042.03;;;19.76;45.75
63399;BME280;49533;-34.520;150.798;2022-11-15T12:41:14;100045.56;;;19.73;45.38
63399;BME280;49533;-34.520;150.798;2022-11-15T12:43:45;100040.81;;;19.70;45.83
63399;BME280;49533;-34.520;150.798;2022-11-15T12:46:22;100047.09;;;19.67;45.42
63399;BME280;49533;-34.520;150.798;2022-11-15T12:48:54;100044.34;;;19.67;45.78
63399;BME280;49533;-34.520;150.798;2022-11-15T12:54:50;100041.91;;;19.62;45.38
63399;BME280;49533;-34.520;150.798;2022-11-15T12:57:30;100038.31;;;19.58;45.50
63399;BME280;49533;-34.520;150.798;2022-11-15T13:03:18;100042.53;;;19.48;45.22
63399;BME280;49533;-34.520;150.798;2022-11-15T13:05:55;100042.53;;;19.44;45.43
63399;BME280;49533;-34.520;150.798;2022-11-15T13:08:42;100037.00;;;19.44;45.69
63399;BME280;49533;-34.520;150.798;2022-11-15T13:14:41;100040.09;;;19.39;45.26
63399;BME280;49533;-34.520;150.798;2022-11-15T13:17:28;100032.97;;;19.34;45.58
63399;BME280;49533;-34.520;150.798;2022-11-15T13:20:19;100036.13;;;19.33;45.20
63399;BME280;49533;-34.520;150.798;2022-11-15T13:22:50;100025.06;;;19.29;45.41
63399;BME280;49533;-34.520;150.798;2022-11-15T13:25:36;100026.59;;;19.27;45.40